sensor_id;sensor_type;location;lat;lon;timestamp;P1;durP1;ratioP1;P2;durP2;ratioP2
10446;SDS011;5271;44.422;26.092;2023-02-28T00:01:08;2.40;;;2.40;;
10446;SDS011;5271;44.422;26.092;2023-02-28T00:03:35;2.30;;;2.30;;
10446;SDS011;5271;44.422;26.092;2023-02-28T00:06:03;2.20;;;2.20;;
10446;SDS011;5271;44.422;26.092;2023-02-28T00:08:31;2.20;;;2.20;;
10446;SDS011;5271;44.422;26.092;2023-02-28T00:11:01;2.30;;;2.30;;
10446;SDS011;5271;44.422;26.092;2023-02-28T00:13:29;2.30;;;2.30;;
10446;SDS011;5271;44.422;26.092;2023-02-28T00:15:59;2.40;;;2.40;;
10446;SDS011;5271;44.422;26.092;2023-02-28T00:18:27;2.30;;;2.30;;
10446;SDS011;5271;44.422;26.092;2023-02-28T00:20:53;2.47;;;2.47;;
10446;SDS011;5271;44.422;26.092;2023-02-28T00:23:20;2.37;;;2.37;;
10446;SDS011;5271;44.422;26.092;2023-02-28T00:25:47;2.40;;;2.40;;
10446;SDS011;5271;44.422;26.092;2023-02-28T00:28:16;2.30;;;2.30;;
10446;SDS011;5271;44.422;26.092;2023-02-28T00:30:43;2.40;;;2.40;;
10446;SDS011;5271;44.422;26.092;2023-02-28T00:33:10;2.37;;;2.37;;
10446;SDS011;5271;44.422;26.092;2023-02-28T00:35:37;2.43;;;2.43;;
10446;SDS011;5271;44.422;26.092;2023-02-28T00:38:04;2.30;;;2.30;;
10446;SDS011;5271;44.422;26.092;2023-02-28T00:40:31;2.40;;;2.40;;
10446;SDS011;5271;44.422;26.092;2023-02-28T00:42:58;2.40;;;2.40;;
10446;SDS011;5271;44.422;26.092;2023-02-28T00:45:26;2.27;;;2.27;;
10446;SDS011;5271;44.422;26.092;2023-02-28T00:47:53;2.40;;;2.40;;
10446;SDS011;5271;44.422;26.092;2023-02-28T00:50:20;2.30;;;2.30;;
10446;SDS011;5271;44.422;26.092;2023-02-28T00:52:47;2.40;;;2.40;;
10446;SDS011;5271;44.422;26.092;2023-02-28T00:55:14;2.20;;;2.20;;
10446;SDS011;5271;44.422;26.092;2023-02-28T00:57:41;2.30;;;2.30;;
10446;SDS011;5271;44.422;26.092;2023-02-28T01:00:09;2.30;;;2.30;;
10446;SDS011;5271;44.422;26.092;2023-02-28T01:02:38;2.37;;;2.37;;
10446;SDS011;5271;44.422;26.092;2023-02-28T01:05:05;2.40;;;2.40;;
10446;SDS011;5271;44.422;26.092;2023-02-28T01:07:32;2.50;;;2.50;;
10446;SDS011;5271;44.422;26.092;2023-02-28T01:09:59;2.30;;;2.30;;
10446;SDS011;5271;44.422;26.092;2023-02-28T01:12:26;2.30;;;2.30;;
10446;SDS011;5271;44.422;26.092;2023-02-28T01:14:53;2.40;;;2.40;;
10446;SDS011;5271;44.422;26.092;2023-02-28T01:17:20;2.30;;;2.30;;
10446;SDS011;5271;44.422;26.092;2023-02-28T01:19:48;2.27;;;2.27;;
10446;SDS011;5271;44.422;26.092;2023-02-28T01:22:15;2.40;;;2.40;;
10446;SDS011;5271;44.422;26.092;2023-02-28T01:24:42;2.30;;;2.30;;
10446;SDS011;5271;44.422;26.092;2023-02-28T01:27:09;2.30;;;2.30;;
10446;SDS011;5271;44.422;26.092;2023-02-28T01:29:36;2.20;;;2.20;;
10446;SDS011;5271;44.422;26.092;2023-02-28T01:32:03;2.20;;;2.20;;
10446;SDS011;5271;44.422;26.092;2023-02-28T01:34:30;2.30;;;2.30;;
10446;SDS011;5271;44.422;26.092;2023-02-28T01:36:58;2.30;;;2.30;;
10446;SDS011;5271;44.422;26.092;2023-02-28T01:39:25;2.30;;;2.30;;
10446;SDS011;5271;44.422;26.092;2023-02-28T01:41:52;2.30;;;2.30;;
10446;SDS011;5271;44.422;26.092;2023-02-28T01:47:22;2.23;;;2.23;;
10446;SDS011;5271;44.422;26.092;2023-02-28T01:49:51;2.23;;;2.23;;
10446;SDS011;5271;44.422;26.092;2023-02-28T01:52:20;2.40;;;2.40;;
10446;SDS011;5271;44.422;26.092;2023-02-28T01:54:50;2.30;;;2.30;;
10446;SDS011;5271;44.422;26.092;2023-02-28T01:57:21;2.30;;;2.30;;
10446;SDS011;5271;44.422;26.092;2023-02-28T01:59:51;2.37;;;2.37;;
10446;SDS011;5271;44.422;26.092;2023-02-28T02:02:20;2.37;;;2.37;;
10446;SDS011;5271;44.422;26.092;2023-02-28T02:04:50;2.20;;;2.20;;
10446;SDS011;5271;44.422;26.092;2023-02-28T02:07:20;2.40;;;2.40;;
10446;SDS011;5271;44.422;26.092;2023-02-28T02:09:49;2.40;;;2.40;;
10446;SDS011;5271;44.422;26.092;2023-02-28T02:12:19;2.50;;;2.50;;
10446;SDS011;5271;44.422;26.092;2023-02-28T02:15:03;2.57;;;2.57;;
10446;SDS011;5271;44.422;26.092;2023-02-28T02:17:38;2.40;;;2.40;;
10446;SDS011;5271;44.422;26.092;2023-02-28T02:23:39;2.30;;;2.30;;
10446;SDS011;5271;44.422;26.092;2023-02-28T02:26:43;2.50;;;2.50;;
10446;SDS011;5271;44.422;26.092;2023-02-28T02:29:55;2.50;;;2.50;;
10446;SDS011;5271;44.422;26.092;2023-02-28T02:32:51;2.40;;;2.40;;
10446;SDS011;5271;44.422;26.092;2023-02-28T02:35:34;2.37;;;2.37;;
10446;SDS011;5271;44.422;26.092;2023-02-28T02:38:08;2.37;;;2.37;;
10446;SDS011;5271;44.422;26.092;2023-02-28T02:40:42;2.40;;;2.40;;
10446;SDS011;5271;44.422;26.092;2023-02-28T02:43:15;2.40;;;2.40;;
10446;SDS011;5271;44.422;26.092;2023-02-28T02:45:47;2.40;;;2.40;;
10446;SDS011;5271;44.422;26.092;2023-02-28T02:48:19;2.50;;;2.50;;
10446;SDS011;5271;44.422;26.092;2023-02-28T02:50:50;2.40;;;2.40;;
10446;SDS011;5271;44.422;26.092;2023-02-28T02:53:21;2.40;;;2.40;;
10446;SDS011;5271;44.422;26.092;2023-02-28T02:55:53;2.40;;;2.40;;
10446;SDS011;5271;44.422;26.092;2023-02-28T02:58:22;2.40;;;2.40;;
10446;SDS011;5271;44.422;26.092;2023-02-28T03:00:52;2.40;;;2.40;;
10446;SDS011;5271;44.422;26.092;2023-02-28T03:03:21;2.30;;;2.30;;
10446;SDS011;5271;44.422;26.092;2023-02-28T03:05:56;2.47;;;2.47;;
10446;SDS011;5271;44.422;26.092;2023-02-28T03:08:25;2.50;;;2.50;;
10446;SDS011;5271;44.422;26.092;2023-02-28T03:10:55;2.47;;;2.47;;
10446;SDS011;5271;44.422;26.092;2023-02-28T03:13:29;2.40;;;2.40;;
10446;SDS011;5271;44.422;26.092;2023-02-28T03:16:15;2.50;;;2.50;;
10446;SDS011;5271;44.422;26.092;2023-02-28T03:19:01;2.40;;;2.40;;
10446;SDS011;5271;44.422;26.092;2023-02-28T03:21:40;2.40;;;2.40;;
10446;SDS011;5271;44.422;26.092;2023-02-28T03:24:14;2.40;;;2.40;;
10446;SDS011;5271;44.422;26.092;2023-02-28T03:26:46;2.53;;;2.53;;
10446;SDS011;5271;44.422;26.092;2023-02-28T03:29:21;2.40;;;2.40;;
10446;SDS011;5271;44.422;26.092;2023-02-28T03:31:55;2.50;;;2.50;;
10446;SDS011;5271;44.422;26.092;2023-02-28T03:34:26;2.30;;;2.30;;
10446;SDS011;5271;44.422;26.092;2023-02-28T03:37:00;2.40;;;2.40;;
10446;SDS011;5271;44.422;26.092;2023-02-28T03:39:34;2.47;;;2.47;;
10446;SDS011;5271;44.422;26.092;2023-02-28T03:42:04;2.40;;;2.40;;
10446;SDS011;5271;44.422;26.092;2023-02-28T03:44:36;2.40;;;2.40;;
10446;SDS011;5271;44.422;26.092;2023-02-28T03:47:08;2.40;;;2.40;;
10446;SDS011;5271;44.422;26.092;2023-02-28T03:49:40;2.37;;;2.37;;
10446;SDS011;5271;44.422;26.092;2023-02-28T03:52:14;2.50;;;2.50;;
10446;SDS011;5271;44.422;26.092;2023-02-28T03:54:41;2.30;;;2.30;;
10446;SDS011;5271;44.422;26.092;2023-02-28T03:57:12;2.50;;;2.50;;
10446;SDS011;5271;44.422;26.092;2023-02-28T03:59:47;2.37;;;2.37;;
10446;SDS011;5271;44.422;26.092;2023-02-28T04:02:18;2.50;;;2.50;;
10446;SDS011;5271;44.422;26.092;2023-02-28T04:04:45;2.40;;;2.40;;
10446;SDS011;5271;44.422;26.092;2023-02-28T04:07:14;2.40;;;2.40;;
10446;SDS011;5271;44.422;26.092;2023-02-28T04:09:41;2.40;;;2.40;;
10446;SDS011;5271;44.422;26.092;2023-02-28T04:12:08;2.40;;;2.40;;
10446;SDS011;5271;44.422;26.092;2023-02-28T04:14:36;2.30;;;2.30;;
10446;SDS011;5271;44.422;26.092;2023-02-28T04:17:03;2.40;;;2.40;;
10446;SDS011;5271;44.422;26.092;2023-02-28T04:19:29;2.30;;;2.30;;
10446;SDS011;5271;44.422;26.092;2023-02-28T04:21:56;2.40;;;2.40;;
10446;SDS011;5271;44.422;26.092;2023-02-28T04:24:25;2.40;;;2.40;;
10446;SDS011;5271;44.422;26.092;2023-02-28T04:26:54;2.40;;;2.40;;
10446;SDS011;5271;44.422;26.092;2023-02-28T04:29:23;2.30;;;2.30;;
10446;SDS011;5271;44.422;26.092;2023-02-28T04:31:51;2.43;;;2.43;;
10446;SDS011;5271;44.422;26.092;2023-02-28T04:34:18;2.47;;;2.47;;
10446;SDS011;5271;44.422;26.092;2023-02-28T04:36:46;2.50;;;2.50;;
10446;SDS011;5271;44.422;26.092;2023-02-28T04:39:14;2.40;;;2.40;;
10446;SDS011;5271;44.422;26.092;2023-02-28T04:41:43;2.50;;;2.50;;
10446;SDS011;5271;44.422;26.092;2023-02-28T04:44:10;2.33;;;2.33;;
10446;SDS011;5271;44.422;26.092;2023-02-28T04:46:37;2.50;;;2.50;;
10446;SDS011;5271;44.422;26.092;2023-02-28T04:49:04;2.30;;;2.30;;
10446;SDS011;5271;44.422;26.092;2023-02-28T04:51:31;2.50;;;2.50;;
10446;SDS011;5271;44.422;26.092;2023-02-28T04:53:58;2.50;;;2.50;;
10446;SDS011;5271;44.422;26.092;2023-02-28T04:56:25;2.40;;;2.40;;
10446;SDS011;5271;44.422;26.092;2023-02-28T04:58:53;2.70;;;2.70;;
10446;SDS011;5271;44.422;26.092;2023-02-28T05:01:21;2.60;;;2.60;;
10446;SDS011;5271;44.422;26.092;2023-02-28T05:03:49;2.60;;;2.60;;
10446;SDS011;5271;44.422;26.092;2023-02-28T05:06:18;2.50;;;2.50;;
10446;SDS011;5271;44.422;26.092;2023-02-28T05:08:46;2.60;;;2.60;;
10446;SDS011;5271;44.422;26.092;2023-02-28T05:11:14;2.40;;;2.40;;
10446;SDS011;5271;44.422;26.092;2023-02-28T05:13:43;2.50;;;2.50;;
10446;SDS011;5271;44.422;26.092;2023-02-28T05:16:12;2.60;;;2.60;;
10446;SDS011;5271;44.422;26.092;2023-02-28T05:18:39;2.40;;;2.40;;
10446;SDS011;5271;44.422;26.092;2023-02-28T05:21:12;2.57;;;2.57;;
10446;SDS011;5271;44.422;26.092;2023-02-28T05:23:54;2.43;;;2.43;;
10446;SDS011;5271;44.422;26.092;2023-02-28T05:26:22;2.60;;;2.60;;
10446;SDS011;5271;44.422;26.092;2023-02-28T05:28:49;2.60;;;2.60;;
10446;SDS011;5271;44.422;26.092;2023-02-28T05:31:17;2.60;;;2.60;;
10446;SDS011;5271;44.422;26.092;2023-02-28T05:33:44;2.60;;;2.60;;
10446;SDS011;5271;44.422;26.092;2023-02-28T05:36:11;2.50;;;2.50;;
10446;SDS011;5271;44.422;26.092;2023-02-28T05:38:38;2.70;;;2.70;;
10446;SDS011;5271;44.422;26.092;2023-02-28T05:41:05;2.53;;;2.53;;
10446;SDS011;5271;44.422;26.092;2023-02-28T05:43:33;2.50;;;2.50;;
10446;SDS011;5271;44.422;26.092;2023-02-28T05:46:02;2.57;;;2.57;;
10446;SDS011;5271;44.422;26.092;2023-02-28T05:48:31;2.50;;;2.50;;
10446;SDS011;5271;44.422;26.092;2023-02-28T05:50:59;2.60;;;2.60;;
10446;SDS011;5271;44.422;26.092;2023-02-28T05:53:26;2.70;;;2.70;;
10446;SDS011;5271;44.422;26.092;2023-02-28T05:55:53;2.50;;;2.50;;
10446;SDS011;5271;44.422;26.092;2023-02-28T05:58:20;2.50;;;2.50;;
10446;SDS011;5271;44.422;26.092;2023-02-28T06:00:47;2.50;;;2.50;;
10446;SDS011;5271;44.422;26.092;2023-02-28T06:03:14;2.60;;;2.60;;
10446;SDS011;5271;44.422;26.092;2023-02-28T06:05:42;2.40;;;2.40;;
10446;SDS011;5271;44.422;26.092;2023-02-28T06:08:09;2.40;;;2.40;;
10446;SDS011;5271;44.422;26.092;2023-02-28T06:10:36;2.43;;;2.43;;
10446;SDS011;5271;44.422;26.092;2023-02-28T06:13:03;2.43;;;2.43;;
10446;SDS011;5271;44.422;26.092;2023-02-28T06:15:32;2.40;;;2.40;;
10446;SDS011;5271;44.422;26.092;2023-02-28T06:17:59;2.40;;;2.40;;
10446;SDS011;5271;44.422;26.092;2023-02-28T06:20:27;2.60;;;2.60;;
10446;SDS011;5271;44.422;26.092;2023-02-28T06:22:56;2.40;;;2.40;;
10446;SDS011;5271;44.422;26.092;2023-02-28T06:25:24;2.50;;;2.50;;
10446;SDS011;5271;44.422;26.092;2023-02-28T06:27:52;2.60;;;2.60;;
10446;SDS011;5271;44.422;26.092;2023-02-28T06:30:19;2.40;;;2.40;;
10446;SDS011;5271;44.422;26.092;2023-02-28T06:32:48;2.40;;;2.40;;
10446;SDS011;5271;44.422;26.092;2023-02-28T06:35:17;2.50;;;2.50;;
10446;SDS011;5271;44.422;26.092;2023-02-28T06:37:44;2.40;;;2.40;;
10446;SDS011;5271;44.422;26.092;2023-02-28T06:40:13;2.50;;;2.50;;
10446;SDS011;5271;44.422;26.092;2023-02-28T06:42:41;2.50;;;2.50;;
10446;SDS011;5271;44.422;26.092;2023-02-28T06:45:09;2.60;;;2.60;;
10446;SDS011;5271;44.422;26.092;2023-02-28T06:47:37;2.60;;;2.60;;
10446;SDS011;5271;44.422;26.092;2023-02-28T06:50:05;2.63;;;2.63;;
10446;SDS011;5271;44.422;26.092;2023-02-28T06:52:34;2.53;;;2.53;;
10446;SDS011;5271;44.422;26.092;2023-02-28T06:55:02;2.50;;;2.50;;
10446;SDS011;5271;44.422;26.092;2023-02-28T06:57:31;2.60;;;2.60;;
10446;SDS011;5271;44.422;26.092;2023-02-28T06:59:59;2.47;;;2.47;;
10446;SDS011;5271;44.422;26.092;2023-02-28T07:02:27;2.60;;;2.60;;
10446;SDS011;5271;44.422;26.092;2023-02-28T07:04:54;2.50;;;2.50;;
10446;SDS011;5271;44.422;26.092;2023-02-28T07:07:21;2.30;;;2.30;;
10446;SDS011;5271;44.422;26.092;2023-02-28T07:09:48;2.47;;;2.47;;
10446;SDS011;5271;44.422;26.092;2023-02-28T07:12:15;2.40;;;2.40;;
10446;SDS011;5271;44.422;26.092;2023-02-28T07:14:43;2.30;;;2.30;;
10446;SDS011;5271;44.422;26.092;2023-02-28T07:17:10;2.40;;;2.40;;
10446;SDS011;5271;44.422;26.092;2023-02-28T07:19:38;2.57;;;2.57;;
10446;SDS011;5271;44.422;26.092;2023-02-28T07:22:05;2.50;;;2.50;;
10446;SDS011;5271;44.422;26.092;2023-02-28T07:24:32;2.40;;;2.40;;
10446;SDS011;5271;44.422;26.092;2023-02-28T07:26:59;2.27;;;2.27;;
10446;SDS011;5271;44.422;26.092;2023-02-28T07:29:26;2.40;;;2.40;;
10446;SDS011;5271;44.422;26.092;2023-02-28T07:31:55;2.20;;;2.20;;
10446;SDS011;5271;44.422;26.092;2023-02-28T07:34:22;2.10;;;2.10;;
10446;SDS011;5271;44.422;26.092;2023-02-28T07:36:52;2.20;;;2.20;;
10446;SDS011;5271;44.422;26.092;2023-02-28T07:39:19;2.00;;;2.00;;
10446;SDS011;5271;44.422;26.092;2023-02-28T07:41:46;2.00;;;2.00;;
10446;SDS011;5271;44.422;26.092;2023-02-28T07:44:13;2.00;;;2.00;;
10446;SDS011;5271;44.422;26.092;2023-02-28T07:46:40;2.00;;;2.00;;
10446;SDS011;5271;44.422;26.092;2023-02-28T07:49:08;1.90;;;1.90;;
10446;SDS011;5271;44.422;26.092;2023-02-28T07:51:35;2.10;;;2.10;;
10446;SDS011;5271;44.422;26.092;2023-02-28T07:54:02;2.10;;;2.10;;
10446;SDS011;5271;44.422;26.092;2023-02-28T07:56:29;2.00;;;2.00;;
10446;SDS011;5271;44.422;26.092;2023-02-28T07:58:56;2.13;;;2.13;;
10446;SDS011;5271;44.422;26.092;2023-02-28T08:01:23;2.10;;;2.10;;
10446;SDS011;5271;44.422;26.092;2023-02-28T08:03:50;2.10;;;2.10;;
10446;SDS011;5271;44.422;26.092;2023-02-28T08:06:19;2.20;;;2.20;;
10446;SDS011;5271;44.422;26.092;2023-02-28T08:08:46;2.13;;;2.13;;
10446;SDS011;5271;44.422;26.092;2023-02-28T08:11:14;2.20;;;2.20;;
10446;SDS011;5271;44.422;26.092;2023-02-28T08:13:42;2.30;;;2.30;;
10446;SDS011;5271;44.422;26.092;2023-02-28T08:16:09;2.20;;;2.20;;
10446;SDS011;5271;44.422;26.092;2023-02-28T08:18:36;2.03;;;2.03;;
10446;SDS011;5271;44.422;26.092;2023-02-28T08:21:05;2.20;;;2.20;;
10446;SDS011;5271;44.422;26.092;2023-02-28T08:23:34;2.17;;;2.17;;
10446;SDS011;5271;44.422;26.092;2023-02-28T08:26:01;2.10;;;2.10;;
10446;SDS011;5271;44.422;26.092;2023-02-28T08:28:29;2.10;;;2.10;;
10446;SDS011;5271;44.422;26.092;2023-02-28T08:30:56;2.20;;;2.20;;
10446;SDS011;5271;44.422;26.092;2023-02-28T08:33:23;2.20;;;2.20;;
10446;SDS011;5271;44.422;26.092;2023-02-28T08:35:52;2.10;;;2.10;;
10446;SDS011;5271;44.422;26.092;2023-02-28T08:38:19;2.10;;;2.10;;
10446;SDS011;5271;44.422;26.092;2023-02-28T08:40:48;2.20;;;2.20;;
10446;SDS011;5271;44.422;26.092;2023-02-28T08:43:14;2.10;;;2.10;;
10446;SDS011;5271;44.422;26.092;2023-02-28T08:45:41;2.10;;;2.10;;
10446;SDS011;5271;44.422;26.092;2023-02-28T08:48:08;2.10;;;2.10;;
10446;SDS011;5271;44.422;26.092;2023-02-28T08:50:35;2.30;;;2.30;;
10446;SDS011;5271;44.422;26.092;2023-02-28T08:53:02;2.10;;;2.10;;
10446;SDS011;5271;44.422;26.092;2023-02-28T08:55:29;2.17;;;2.17;;
10446;SDS011;5271;44.422;26.092;2023-02-28T08:57:57;1.80;;;1.80;;
10446;SDS011;5271;44.422;26.092;2023-02-28T09:00:24;1.70;;;1.70;;
10446;SDS011;5271;44.422;26.092;2023-02-28T09:02:51;1.60;;;1.60;;
10446;SDS011;5271;44.422;26.092;2023-02-28T09:05:19;1.40;;;1.40;;
10446;SDS011;5271;44.422;26.092;2023-02-28T09:07:46;1.40;;;1.40;;
10446;SDS011;5271;44.422;26.092;2023-02-28T09:10:13;1.40;;;1.40;;
10446;SDS011;5271;44.422;26.092;2023-02-28T09:12:40;1.50;;;1.50;;
10446;SDS011;5271;44.422;26.092;2023-02-28T09:15:09;1.50;;;1.50;;
10446;SDS011;5271;44.422;26.092;2023-02-28T09:17:36;1.60;;;1.60;;
10446;SDS011;5271;44.422;26.092;2023-02-28T09:20:04;1.60;;;1.60;;
10446;SDS011;5271;44.422;26.092;2023-02-28T09:22:31;1.60;;;1.60;;
10446;SDS011;5271;44.422;26.092;2023-02-28T09:24:58;1.70;;;1.70;;
10446;SDS011;5271;44.422;26.092;2023-02-28T09:27:25;1.70;;;1.70;;
10446;SDS011;5271;44.422;26.092;2023-02-28T09:29:52;1.80;;;1.80;;
10446;SDS011;5271;44.422;26.092;2023-02-28T09:32:20;1.70;;;1.70;;
10446;SDS011;5271;44.422;26.092;2023-02-28T09:34:47;2.00;;;2.00;;
10446;SDS011;5271;44.422;26.092;2023-02-28T09:37:14;1.80;;;1.80;;
10446;SDS011;5271;44.422;26.092;2023-02-28T09:39:41;2.10;;;2.10;;
10446;SDS011;5271;44.422;26.092;2023-02-28T09:42:11;1.90;;;1.90;;
10446;SDS011;5271;44.422;26.092;2023-02-28T09:44:51;2.00;;;2.00;;
10446;SDS011;5271;44.422;26.092;2023-02-28T09:47:19;1.90;;;1.90;;
10446;SDS011;5271;44.422;26.092;2023-02-28T09:49:55;2.10;;;2.10;;
10446;SDS011;5271;44.422;26.092;2023-02-28T09:52:26;2.00;;;2.00;;
10446;SDS011;5271;44.422;26.092;2023-02-28T09:54:56;2.10;;;2.10;;
10446;SDS011;5271;44.422;26.092;2023-02-28T09:57:27;2.20;;;2.20;;
10446;SDS011;5271;44.422;26.092;2023-02-28T10:00:02;2.20;;;2.20;;
10446;SDS011;5271;44.422;26.092;2023-02-28T10:02:58;2.10;;;2.10;;
10446;SDS011;5271;44.422;26.092;2023-02-28T10:05:38;2.10;;;2.10;;
10446;SDS011;5271;44.422;26.092;2023-02-28T10:08:11;2.30;;;2.30;;
10446;SDS011;5271;44.422;26.092;2023-02-28T10:10:41;2.00;;;2.00;;
10446;SDS011;5271;44.422;26.092;2023-02-28T10:13:14;2.20;;;2.20;;
10446;SDS011;5271;44.422;26.092;2023-02-28T10:15:46;2.07;;;2.07;;
10446;SDS011;5271;44.422;26.092;2023-02-28T10:18:19;2.30;;;2.30;;
10446;SDS011;5271;44.422;26.092;2023-02-28T10:20:51;2.20;;;2.20;;
10446;SDS011;5271;44.422;26.092;2023-02-28T10:23:21;2.10;;;2.10;;
10446;SDS011;5271;44.422;26.092;2023-02-28T10:25:57;2.27;;;2.27;;
10446;SDS011;5271;44.422;26.092;2023-02-28T10:28:27;2.10;;;2.10;;
10446;SDS011;5271;44.422;26.092;2023-02-28T10:30:56;2.07;;;2.07;;
10446;SDS011;5271;44.422;26.092;2023-02-28T10:33:28;2.10;;;2.10;;
10446;SDS011;5271;44.422;26.092;2023-02-28T10:35:57;2.20;;;2.20;;
10446;SDS011;5271;44.422;26.092;2023-02-28T10:38:25;2.13;;;2.13;;
10446;SDS011;5271;44.422;26.092;2023-02-28T10:41:02;2.20;;;2.20;;
10446;SDS011;5271;44.422;26.092;2023-02-28T10:43:31;2.20;;;2.20;;
10446;SDS011;5271;44.422;26.092;2023-02-28T10:45:59;2.13;;;2.13;;
10446;SDS011;5271;44.422;26.092;2023-02-28T10:48:32;2.10;;;2.10;;
10446;SDS011;5271;44.422;26.092;2023-02-28T10:51:00;2.17;;;2.17;;
10446;SDS011;5271;44.422;26.092;2023-02-28T10:53:30;2.20;;;2.20;;
10446;SDS011;5271;44.422;26.092;2023-02-28T10:56:00;2.20;;;2.20;;
10446;SDS011;5271;44.422;26.092;2023-02-28T10:58:30;2.20;;;2.20;;
10446;SDS011;5271;44.422;26.092;2023-02-28T11:00:58;2.10;;;2.10;;
10446;SDS011;5271;44.422;26.092;2023-02-28T11:03:32;2.10;;;2.10;;
10446;SDS011;5271;44.422;26.092;2023-02-28T11:06:04;2.20;;;2.20;;
10446;SDS011;5271;44.422;26.092;2023-02-28T11:08:33;2.10;;;2.10;;
10446;SDS011;5271;44.422;26.092;2023-02-28T11:11:03;2.20;;;2.20;;
10446;SDS011;5271;44.422;26.092;2023-02-28T11:13:32;2.10;;;2.10;;
10446;SDS011;5271;44.422;26.092;2023-02-28T11:16:03;2.10;;;2.10;;
10446;SDS011;5271;44.422;26.092;2023-02-28T11:18:35;2.00;;;2.00;;
10446;SDS011;5271;44.422;26.092;2023-02-28T11:21:07;2.10;;;2.10;;
10446;SDS011;5271;44.422;26.092;2023-02-28T11:23:41;2.17;;;2.17;;
10446;SDS011;5271;44.422;26.092;2023-02-28T11:26:08;2.10;;;2.10;;
10446;SDS011;5271;44.422;26.092;2023-02-28T11:28:37;2.10;;;2.10;;
10446;SDS011;5271;44.422;26.092;2023-02-28T11:31:09;2.00;;;2.00;;
10446;SDS011;5271;44.422;26.092;2023-02-28T11:33:46;2.10;;;2.10;;
10446;SDS011;5271;44.422;26.092;2023-02-28T11:36:16;2.10;;;2.10;;
10446;SDS011;5271;44.422;26.092;2023-02-28T11:38:45;2.00;;;2.00;;
10446;SDS011;5271;44.422;26.092;2023-02-28T11:41:20;2.20;;;2.20;;
10446;SDS011;5271;44.422;26.092;2023-02-28T11:46:46;2.10;;;2.10;;
10446;SDS011;5271;44.422;26.092;2023-02-28T11:49:22;1.97;;;1.97;;
10446;SDS011;5271;44.422;26.092;2023-02-28T11:52:01;2.00;;;2.00;;
10446;SDS011;5271;44.422;26.092;2023-02-28T11:54:39;2.10;;;2.10;;
10446;SDS011;5271;44.422;26.092;2023-02-28T11:57:24;2.10;;;2.10;;
10446;SDS011;5271;44.422;26.092;2023-02-28T12:00:26;2.10;;;2.10;;
10446;SDS011;5271;44.422;26.092;2023-02-28T12:03:03;2.10;;;2.10;;
10446;SDS011;5271;44.422;26.092;2023-02-28T12:05:43;2.00;;;2.00;;
10446;SDS011;5271;44.422;26.092;2023-02-28T12:08:19;2.00;;;2.00;;
10446;SDS011;5271;44.422;26.092;2023-02-28T12:10:54;2.00;;;2.00;;
10446;SDS011;5271;44.422;26.092;2023-02-28T12:13:32;2.10;;;2.10;;
10446;SDS011;5271;44.422;26.092;2023-02-28T12:16:26;2.00;;;2.00;;
10446;SDS011;5271;44.422;26.092;2023-02-28T12:19:14;2.00;;;2.00;;
10446;SDS011;5271;44.422;26.092;2023-02-28T12:21:54;2.10;;;2.10;;
10446;SDS011;5271;44.422;26.092;2023-02-28T12:24:39;2.13;;;2.13;;
10446;SDS011;5271;44.422;26.092;2023-02-28T12:27:17;2.10;;;2.10;;
10446;SDS011;5271;44.422;26.092;2023-02-28T12:29:49;2.17;;;2.17;;
10446;SDS011;5271;44.422;26.092;2023-02-28T12:32:21;2.00;;;2.00;;
10446;SDS011;5271;44.422;26.092;2023-02-28T12:34:54;2.10;;;2.10;;
10446;SDS011;5271;44.422;26.092;2023-02-28T12:37:27;1.90;;;1.90;;
10446;SDS011;5271;44.422;26.092;2023-02-28T12:40:00;2.00;;;2.00;;
10446;SDS011;5271;44.422;26.092;2023-02-28T12:42:31;2.10;;;2.10;;
10446;SDS011;5271;44.422;26.092;2023-02-28T12:45:05;2.00;;;2.00;;
10446;SDS011;5271;44.422;26.092;2023-02-28T12:47:38;2.10;;;2.10;;
10446;SDS011;5271;44.422;26.092;2023-02-28T12:50:07;2.10;;;2.10;;
10446;SDS011;5271;44.422;26.092;2023-02-28T12:52:40;2.10;;;2.10;;
10446;SDS011;5271;44.422;26.092;2023-02-28T12:55:14;2.10;;;2.10;;
10446;SDS011;5271;44.422;26.092;2023-02-28T12:57:50;2.10;;;2.10;;
10446;SDS011;5271;44.422;26.092;2023-02-28T13:00:25;2.00;;;2.00;;
10446;SDS011;5271;44.422;26.092;2023-02-28T13:11:29;2.00;;;2.00;;
10446;SDS011;5271;44.422;26.092;2023-02-28T13:13:59;2.00;;;2.00;;
10446;SDS011;5271;44.422;26.092;2023-02-28T13:16:28;2.00;;;2.00;;
10446;SDS011;5271;44.422;26.092;2023-02-28T13:19:23;2.10;;;2.10;;
10446;SDS011;5271;44.422;26.092;2023-02-28T13:21:53;1.93;;;1.93;;
10446;SDS011;5271;44.422;26.092;2023-02-28T13:27:17;2.10;;;2.10;;
10446;SDS011;5271;44.422;26.092;2023-02-28T13:29:57;2.10;;;2.10;;
10446;SDS011;5271;44.422;26.092;2023-02-28T13:32:29;2.10;;;2.10;;
10446;SDS011;5271;44.422;26.092;2023-02-28T13:38:21;2.00;;;2.00;;
10446;SDS011;5271;44.422;26.092;2023-02-28T13:44:14;1.90;;;1.90;;
10446;SDS011;5271;44.422;26.092;2023-02-28T13:49:50;2.00;;;2.00;;
10446;SDS011;5271;44.422;26.092;2023-02-28T13:52:18;1.90;;;1.90;;
10446;SDS011;5271;44.422;26.092;2023-02-28T13:54:54;1.97;;;1.97;;
10446;SDS011;5271;44.422;26.092;2023-02-28T13:57:42;2.00;;;2.00;;
10446;SDS011;5271;44.422;26.092;2023-02-28T14:00:21;1.90;;;1.90;;
10446;SDS011;5271;44.422;26.092;2023-02-28T14:03:05;2.00;;;2.00;;
10446;SDS011;5271;44.422;26.092;2023-02-28T14:08:36;2.00;;;2.00;;
10446;SDS011;5271;44.422;26.092;2023-02-28T14:11:22;1.90;;;1.90;;
10446;SDS011;5271;44.422;26.092;2023-02-28T14:13:53;1.90;;;1.90;;
10446;SDS011;5271;44.422;26.092;2023-02-28T14:16:21;1.90;;;1.90;;
10446;SDS011;5271;44.422;26.092;2023-02-28T14:18:53;1.80;;;1.80;;
10446;SDS011;5271;44.422;26.092;2023-02-28T14:21:24;2.00;;;2.00;;
10446;SDS011;5271;44.422;26.092;2023-02-28T14:27:00;1.80;;;1.80;;
10446;SDS011;5271;44.422;26.092;2023-02-28T14:32:32;2.00;;;2.00;;
10446;SDS011;5271;44.422;26.092;2023-02-28T14:35:09;2.00;;;2.00;;
10446;SDS011;5271;44.422;26.092;2023-02-28T14:37:46;1.90;;;1.90;;
10446;SDS011;5271;44.422;26.092;2023-02-28T14:40:15;1.90;;;1.90;;
10446;SDS011;5271;44.422;26.092;2023-02-28T14:42:46;2.03;;;2.03;;
10446;SDS011;5271;44.422;26.092;2023-02-28T14:45:18;1.90;;;1.90;;
10446;SDS011;5271;44.422;26.092;2023-02-28T14:47:47;1.80;;;1.80;;
10446;SDS011;5271;44.422;26.092;2023-02-28T14:50:19;1.90;;;1.90;;
10446;SDS011;5271;44.422;26.092;2023-02-28T14:52:49;1.90;;;1.90;;
10446;SDS011;5271;44.422;26.092;2023-02-28T14:55:20;2.00;;;2.00;;
10446;SDS011;5271;44.422;26.092;2023-02-28T14:57:52;2.00;;;2.00;;
10446;SDS011;5271;44.422;26.092;2023-02-28T15:00:22;2.00;;;2.00;;
10446;SDS011;5271;44.422;26.092;2023-02-28T15:02:51;1.90;;;1.90;;
10446;SDS011;5271;44.422;26.092;2023-02-28T15:05:22;2.10;;;2.10;;
10446;SDS011;5271;44.422;26.092;2023-02-28T15:08:00;2.00;;;2.00;;
10446;SDS011;5271;44.422;26.092;2023-02-28T15:10:29;1.90;;;1.90;;
10446;SDS011;5271;44.422;26.092;2023-02-28T15:12:57;2.10;;;2.10;;
10446;SDS011;5271;44.422;26.092;2023-02-28T15:15:27;1.93;;;1.93;;
10446;SDS011;5271;44.422;26.092;2023-02-28T15:18:03;1.90;;;1.90;;
10446;SDS011;5271;44.422;26.092;2023-02-28T15:20:31;2.10;;;2.10;;
10446;SDS011;5271;44.422;26.092;2023-02-28T15:22:59;2.10;;;2.10;;
10446;SDS011;5271;44.422;26.092;2023-02-28T15:25:26;1.90;;;1.90;;
10446;SDS011;5271;44.422;26.092;2023-02-28T15:27:54;2.03;;;2.03;;
10446;SDS011;5271;44.422;26.092;2023-02-28T15:30:24;2.10;;;2.10;;
10446;SDS011;5271;44.422;26.092;2023-02-28T15:33:18;2.10;;;2.10;;
10446;SDS011;5271;44.422;26.092;2023-02-28T15:35:47;2.10;;;2.10;;
10446;SDS011;5271;44.422;26.092;2023-02-28T15:38:15;2.10;;;2.10;;
10446;SDS011;5271;44.422;26.092;2023-02-28T15:40:44;2.00;;;2.00;;
10446;SDS011;5271;44.422;26.092;2023-02-28T15:43:23;2.10;;;2.10;;
10446;SDS011;5271;44.422;26.092;2023-02-28T15:45:51;1.90;;;1.90;;
10446;SDS011;5271;44.422;26.092;2023-02-28T15:48:23;2.10;;;2.10;;